KUKT/UKT METAR and TAF weather

Enter ICAO airport designator
Station Type Date Time Source
KUKT METAR 2019/10/23 02:15 UTC NOAA

KUKT 230215Z AUTO 00000KT 2SM BR OVC014 15/16 A2982 RMK A01


Station Type Date Time Source
KUKT Decoded METAR 2019/10/23 02:15 UTC NOAA

Quakertown, Quakertown Airport, PA, United States (KUKT) 40-26-06N 075-22-54W
Oct 22, 2019 - 10:15 PM EDT / 2019.10.23 0215 UTC
Wind: Calm:0
Visibility: 2 mile(s):0
Sky conditions: overcast
Weather: mist
Temperature: 59 F (15 C)
Dew Point: 60 F (16 C)
Relative Humidity: 106%
Pressure (altimeter): 29.82 in. Hg (1009 hPa)
ob: KUKT 230215Z AUTO 00000KT 2SM BR OVC014 15/16 A2982 RMK A01
cycle: 2

Station Type Date Time Source
KUKT TAF UTC NOAA

Error!

Example: see airport list